createdAt,value
2023-07-29T00:02:27.730Z,100196.38
2023-07-29T00:07:30.874Z,100186.84
2023-07-29T00:12:32.432Z,100187.13
2023-07-29T00:17:34.036Z,100182.00
2023-07-29T00:22:35.594Z,100184.66
2023-07-29T00:27:37.179Z,100176.34
2023-07-29T00:32:39.123Z,100174.22
2023-07-29T00:37:40.972Z,100175.56
2023-07-29T00:42:42.569Z,100174.00
2023-07-29T00:47:44.838Z,100167.84
2023-07-29T00:52:47.123Z,100174.00
2023-07-29T00:57:49.204Z,100176.13
2023-07-29T01:02:51.083Z,100164.41
2023-07-29T01:08:18.261Z,100144.69
2023-07-29T01:13:49.178Z,100144.69
2023-07-29T01:18:55.134Z,100148.09
2023-07-29T01:23:59.988Z,100132.94
2023-07-29T01:29:01.729Z,100139.63
2023-07-29T01:34:13.229Z,100126.53
2023-07-29T01:39:17.377Z,100125.75
2023-07-29T01:44:20.104Z,100129.25
2023-07-29T01:49:22.758Z,100118.03
2023-07-29T01:54:24.409Z,100104.97
2023-07-29T01:59:26.028Z,100121.22
2023-07-29T02:04:27.864Z,100106.06
2023-07-29T02:09:29.477Z,100129.50
2023-07-29T02:14:31.025Z,100131.06
2023-07-29T02:19:32.625Z,100129.72
2023-07-29T02:24:34.234Z,100127.31
2023-07-29T02:29:35.802Z,100124.13
2023-07-29T02:34:37.443Z,100107.88
2023-07-29T02:39:39.179Z,100120.94
2023-07-29T02:44:41.354Z,100123.28
2023-07-29T02:49:43.033Z,100135.25
2023-07-29T02:54:44.609Z,100130.22
2023-07-29T02:59:46.192Z,100124.63
2023-07-29T03:04:49.228Z,100120.09
2023-07-29T03:09:50.833Z,100127.28
2023-07-29T03:14:52.440Z,100116.38
2023-07-29T03:19:54.158Z,100100.97
2023-07-29T03:24:55.731Z,100102.56
2023-07-29T03:29:57.387Z,100106.56
2023-07-29T03:34:58.952Z,100127.84
2023-07-29T03:40:02.314Z,100120.66
2023-07-29T03:45:07.019Z,100121.66
2023-07-29T03:50:09.293Z,100129.91
2023-07-29T03:55:11.053Z,100121.13
2023-07-29T04:00:12.857Z,100113.69
2023-07-29T04:05:17.477Z,100103.88
2023-07-29T04:10:19.553Z,100113.16
2023-07-29T04:15:21.432Z,100126.97
2023-07-29T04:20:23.174Z,100131.47
2023-07-29T04:25:24.753Z,100129.84
2023-07-29T04:30:26.471Z,100132.75
2023-07-29T04:35:28.131Z,100131.41
2023-07-29T04:40:29.728Z,100139.91
2023-07-29T04:45:31.852Z,100149.69
2023-07-29T04:50:33.554Z,100160.56
2023-07-29T04:55:35.195Z,100167.53
2023-07-29T05:00:37.405Z,100159.63
2023-07-29T05:05:39.109Z,100153.28
2023-07-29T05:10:40.672Z,100149.31
2023-07-29T05:15:42.394Z,100150.09
2023-07-29T05:20:44.146Z,100164.44
2023-07-29T05:25:45.782Z,100151.41
2023-07-29T05:30:48.016Z,100147.25
2023-07-29T05:35:49.744Z,100178.63
2023-07-29T05:40:51.398Z,100174.13
2023-07-29T05:45:53.060Z,100187.91
2023-07-29T05:50:55.989Z,100179.91
2023-07-29T05:55:57.720Z,100183.44
2023-07-29T06:00:59.550Z,100190.13
2023-07-29T06:06:01.432Z,100204.34
2023-07-29T06:11:03.132Z,100210.50
2023-07-29T06:16:05.043Z,100227.53
2023-07-29T06:21:06.975Z,100238.41
2023-07-29T06:26:08.942Z,100234.69
2023-07-29T06:31:10.846Z,100241.97
2023-07-29T06:36:12.930Z,100252.84
2023-07-29T06:41:16.435Z,100248.03
2023-07-29T06:46:19.095Z,100240.03
2023-07-29T06:51:20.819Z,100238.53
2023-07-29T06:56:22.398Z,100244.13
2023-07-29T07:01:24.061Z,100252.72
2023-07-29T07:06:25.739Z,100239.41
2023-07-29T07:11:31.268Z,100245.03
2023-07-29T07:16:33.002Z,100256.50
2023-07-29T07:21:34.664Z,100259.44
2023-07-29T07:26:38.344Z,100265.28
2023-07-29T07:31:40.179Z,100263.44
2023-07-29T07:36:44.115Z,100259.72
2023-07-29T07:41:46.928Z,100262.94
2023-07-29T07:46:48.548Z,100274.63
2023-07-29T07:51:50.374Z,100276.25
2023-07-29T07:56:52.240Z,100268.44
2023-07-29T08:01:54.005Z,100271.41
2023-07-29T08:06:55.555Z,100261.94
2023-07-29T08:11:57.134Z,100261.63
2023-07-29T08:16:58.780Z,100268.56
2023-07-29T08:22:00.492Z,100274.78
2023-07-29T08:27:02.283Z,100289.84
2023-07-29T08:32:03.973Z,100289.19
2023-07-29T08:37:05.818Z,100281.94
2023-07-29T08:42:12.602Z,100282.56
2023-07-29T08:47:14.323Z,100294.69
2023-07-29T08:52:16.847Z,100288.41
2023-07-29T08:57:18.934Z,100293.19
2023-07-29T09:02:23.374Z,100294.06
2023-07-29T09:07:26.289Z,100301.81
2023-07-29T09:12:28.068Z,100298.66
2023-07-29T09:17:33.593Z,100302.38
2023-07-29T09:22:35.629Z,100293.56
2023-07-29T09:27:37.422Z,100301.44
2023-07-29T09:32:40.449Z,100300.00
2023-07-29T09:37:42.093Z,100304.44
2023-07-29T09:42:54.262Z,100298.28
2023-07-29T09:47:58.770Z,100313.50
2023-07-29T09:53:00.751Z,100315.28
2023-07-29T09:58:03.212Z,100306.84
2023-07-29T10:03:05.427Z,100311.66
2023-07-29T10:08:07.786Z,100315.84
2023-07-29T10:13:11.112Z,100325.38
2023-07-29T10:18:13.241Z,100323.22
2023-07-29T10:23:16.416Z,100326.31
2023-07-29T10:28:23.256Z,100331.09
2023-07-29T10:33:25.465Z,100332.06
2023-07-29T10:38:27.494Z,100322.88
2023-07-29T10:43:29.104Z,100319.44
2023-07-29T10:48:33.609Z,100324.25
2023-07-29T10:53:35.241Z,100316.53
2023-07-29T10:58:36.828Z,100312.03
2023-07-29T11:03:38.393Z,100316.03
2023-07-29T11:08:39.975Z,100318.78
2023-07-29T11:13:41.972Z,100327.81
2023-07-29T11:18:45.186Z,100312.03
2023-07-29T11:23:46.754Z,100319.09
2023-07-29T11:28:48.462Z,100311.78
2023-07-29T11:33:50.272Z,100317.88
2023-07-29T11:38:51.842Z,100315.47
2023-07-29T11:43:53.533Z,100308.84
2023-07-29T11:48:55.931Z,100302.13
2023-07-29T11:53:57.671Z,100307.84
2023-07-29T11:58:59.431Z,100300.56
2023-07-29T12:04:01.784Z,100300.16
2023-07-29T12:09:03.462Z,100298.38
2023-07-29T12:14:08.551Z,100293.06
2023-07-29T12:19:13.097Z,100290.22
2023-07-29T12:24:15.295Z,100292.41
2023-07-29T12:29:18.541Z,100282.44
2023-07-29T12:34:21.380Z,100286.69
2023-07-29T12:39:31.511Z,100278.00
2023-07-29T12:44:36.056Z,100271.97
2023-07-29T12:49:37.678Z,100282.16
2023-07-29T12:54:39.249Z,100256.03
2023-07-29T12:59:40.913Z,100250.91
2023-07-29T13:04:42.518Z,100251.75
2023-07-29T13:09:44.258Z,100269.25
2023-07-29T13:14:45.990Z,100267.56
2023-07-29T13:19:47.588Z,100266.13
2023-07-29T13:24:49.477Z,100261.34
2023-07-29T13:29:51.185Z,100260.13
2023-07-29T13:34:52.827Z,100253.84
2023-07-29T13:39:54.460Z,100251.78
2023-07-29T13:44:56.321Z,100264.13
2023-07-29T13:49:57.907Z,100262.88
2023-07-29T13:54:59.730Z,100272.00
2023-07-29T14:00:01.315Z,100272.78
2023-07-29T14:05:13.143Z,100285.84
2023-07-29T14:10:14.885Z,100268.78
2023-07-29T14:15:16.610Z,100268.22
2023-07-29T14:20:20.524Z,100269.31
2023-07-29T14:25:23.664Z,100261.06
2023-07-29T14:30:25.412Z,100261.56
2023-07-29T14:35:27.146Z,100253.56
2023-07-29T14:40:28.725Z,100263.66
2023-07-29T14:45:30.489Z,100264.88
2023-07-29T14:50:32.104Z,100270.16
2023-07-29T14:55:33.686Z,100255.16
2023-07-29T15:00:35.302Z,100259.91
2023-07-29T15:05:37.064Z,100262.06
2023-07-29T15:10:38.746Z,100244.88
2023-07-29T15:15:42.919Z,100249.66
2023-07-29T15:20:45.652Z,100250.63
2023-07-29T15:25:47.316Z,100241.09
2023-07-29T15:30:49.222Z,100255.19
2023-07-29T15:35:50.854Z,100257.38
2023-07-29T15:40:52.673Z,100251.28
2023-07-29T15:45:54.456Z,100262.28
2023-07-29T15:50:56.082Z,100265.84
2023-07-29T15:55:57.876Z,100278.41
2023-07-29T16:00:59.545Z,100286.66
2023-07-29T16:06:01.099Z,100288.97
2023-07-29T16:11:03.116Z,100290.31
2023-07-29T16:16:05.053Z,100275.34
2023-07-29T16:21:06.788Z,100283.41
2023-07-29T16:26:08.433Z,100274.03
2023-07-29T16:31:10.198Z,100276.63
2023-07-29T16:36:11.765Z,100266.44
2023-07-29T16:41:35.748Z,100260.34
2023-07-29T16:46:35.318Z,100256.72
2023-07-29T16:51:37.246Z,100249.75
2023-07-29T16:56:39.178Z,100243.91
2023-07-29T17:01:41.292Z,100257.16
2023-07-29T17:06:43.029Z,100256.03
2023-07-29T17:11:44.734Z,100247.34
2023-07-29T17:16:46.274Z,100255.34
2023-07-29T17:21:47.824Z,100252.66
2023-07-29T17:26:49.550Z,100252.94
2023-07-29T17:31:51.283Z,100259.69
2023-07-29T17:36:52.859Z,100256.75
2023-07-29T17:41:54.574Z,100258.63
2023-07-29T17:46:56.396Z,100259.16
2023-07-29T17:51:58.025Z,100278.88
2023-07-29T17:56:59.800Z,100270.31
2023-07-29T18:02:01.404Z,100262.84
2023-07-29T18:07:03.076Z,100278.59
2023-07-29T18:12:05.162Z,100271.38
2023-07-29T18:17:06.958Z,100273.78
2023-07-29T18:22:08.781Z,100266.84
2023-07-29T18:27:10.416Z,100274.56
2023-07-29T18:32:12.101Z,100277.75
2023-07-29T18:37:13.713Z,100294.81
2023-07-29T18:42:15.327Z,100295.91
2023-07-29T18:47:16.974Z,100301.84
2023-07-29T18:52:18.650Z,100290.88
2023-07-29T18:57:20.250Z,100295.09
2023-07-29T19:02:21.929Z,100293.97
2023-07-29T19:07:23.548Z,100296.22
2023-07-29T19:12:25.144Z,100299.34
2023-07-29T19:17:26.938Z,100306.19
2023-07-29T19:22:28.491Z,100310.94
2023-07-29T19:27:30.149Z,100315.16
2023-07-29T19:32:32.385Z,100309.53
2023-07-29T19:37:34.102Z,100309.69
2023-07-29T19:42:35.707Z,100307.16
2023-07-29T19:47:37.458Z,100317.38
2023-07-29T19:52:39.387Z,100311.41
2023-07-29T19:57:41.008Z,100316.91
2023-07-29T20:02:42.573Z,100305.59
2023-07-29T20:07:44.144Z,100301.78
2023-07-29T20:12:45.815Z,100301.72
2023-07-29T20:17:47.484Z,100304.03
2023-07-29T20:22:49.104Z,100301.31
2023-07-29T20:27:50.759Z,100296.31
2023-07-29T20:32:52.451Z,100293.69
2023-07-29T20:37:54.332Z,100290.75
2023-07-29T20:42:56.035Z,100300.16
2023-07-29T20:47:57.742Z,100303.72
2023-07-29T20:52:59.469Z,100304.47
2023-07-29T20:58:01.104Z,100308.56
2023-07-29T21:03:02.734Z,100310.16
2023-07-29T21:08:04.644Z,100319.13
2023-07-29T21:13:06.278Z,100319.75
2023-07-29T21:18:07.899Z,100323.72
2023-07-29T21:23:09.545Z,100321.88
2023-07-29T21:28:11.153Z,100323.25
2023-07-29T21:33:12.880Z,100337.16
2023-07-29T21:38:28.812Z,100345.31
2023-07-29T21:43:31.253Z,100346.25
2023-07-29T21:48:32.835Z,100349.44
2023-07-29T21:53:34.393Z,100353.50
2023-07-29T21:58:36.044Z,100353.50
2023-07-29T22:03:37.669Z,100369.19
2023-07-29T22:08:39.212Z,100380.69
2023-07-29T22:13:40.764Z,100387.78
2023-07-29T22:18:42.458Z,100397.91
2023-07-29T22:23:58.253Z,100407.72
2023-07-29T22:29:01.896Z,100410.19
2023-07-29T22:34:03.825Z,100410.97
2023-07-29T22:39:05.658Z,100419.31
2023-07-29T22:44:07.252Z,100416.78
2023-07-29T22:49:08.915Z,100420.78
2023-07-29T22:54:10.504Z,100433.78
2023-07-29T22:59:12.059Z,100424.97
2023-07-29T23:04:13.694Z,100433.63
2023-07-29T23:09:15.431Z,100438.94
2023-07-29T23:14:16.996Z,100428.75
2023-07-29T23:19:18.565Z,100430.19
2023-07-29T23:24:20.231Z,100436.00
2023-07-29T23:29:22.065Z,100436.78
2023-07-29T23:34:23.762Z,100440.94
2023-07-29T23:39:25.476Z,100444.19
2023-07-29T23:44:27.158Z,100438.88
2023-07-29T23:49:28.760Z,100430.97
2023-07-29T23:54:32.592Z,100436.03
2023-07-29T23:59:36.985Z,100424.47
